RCTP Airport Information

Runway Information
Runway 05 Length 12008 ft width 197 ft
Elevation 73 ft Threshold 0 ft Heading 49
Runway 23 Length 12008 ft Width 197 ft
Elevation 62 ft Threshold 0 ft Heading 229
Runway 06 Length 10991 ft width 197 ft
Elevation 106 ft Threshold 0 ft Heading 49
Runway 24 Length 10991 ft Width 197 ft
Elevation 95 ft Threshold 0 ft Heading 229
Airport Frequencies
Type APP Name TAIPEI APP Frequency 119.6 MHZ
Type APP Name TAIPEI APP Frequency 123.5 MHZ
Type ATIS Name ATIS Frequency 127.6 MHZ
Type CLD Name CLNC DEL Frequency 121.8 MHZ
Type GND Name GND Frequency 121.7 MHZ
Type TWR Name TAIPEI TWR Frequency 118.7 MHZ
Airport Navaids
Type VOR-DME Name Chiang Kai Shek Frequency 114300 KHZ
Airport Weather Information & NOTAM
ADDS - METARS form results

(1947 UTC 22 July 2018)
 
METAR text: RCTP 221930Z 24005KT 9999 FEW012 SCT080 BKN150 27/25 Q1001 NOSIG RMK A2957
Conditions at: RCTP (TAIPEI TAOYUAN , TW) observed 1930 UTC 22 July 2018
Temperature: 27.0°C (81°F)
Dewpoint: 25.0°C (77°F) [RH = 89%]
Pressure (altimeter): 29.56 inches Hg (1001.0 mb)
Winds: from the WSW (240 degrees) at 6 MPH (5 knots; 2.6 m/s)
Visibility: 6 or more miles (10+ km)
Ceiling: 15000 feet AGL
Clouds: few clouds at 1200 feet AGL
scattered clouds at 8000 feet AGL
broken clouds at 15000 feet AGL
Weather: no significant weather observed at this time

METAR text: RCTP 221900Z 23006KT 9999 FEW012 SCT080 BKN150 28/25 Q1001 NOSIG RMK A2957
Conditions at: RCTP (TAIPEI TAOYUAN , TW) observed 1900 UTC 22 July 2018
Temperature: 28.0°C (82°F)
Dewpoint: 25.0°C (77°F) [RH = 84%]
Pressure (altimeter): 29.56 inches Hg (1001.0 mb)
Winds: from the SW (230 degrees) at 7 MPH (6 knots; 3.1 m/s)
Visibility: 6 or more miles (10+ km)
Ceiling: 15000 feet AGL
Clouds: few clouds at 1200 feet AGL
scattered clouds at 8000 feet AGL
broken clouds at 15000 feet AGL
Weather: no significant weather observed at this time